This is the latest recevied weather packets stored in our database for station/object SR2ATJ-13. If no packets are shown the sender has not sent any weather packets the latest 10 day(s).
| Time | Temp. | Humidity | Pressure | Rain* | Wind** | Luminosity | Snow |
|---|---|---|---|---|---|---|---|
| 1778076302 | 19.44° C | 57% | 1005.4 hPa | - | - | - | - |
| 1778072704 | 19.44° C | 55% | 1005.5 hPa | - | - | - | - |
| 1778072106 | 20° C | 54% | 1005.3 hPa | - | - | - | - |
| 1778071504 | 20.56° C | 53% | 1005.3 hPa | - | - | - | - |
| 1778070903 | 21.11° C | 52% | 1005.3 hPa | - | - | - | - |
| 1778069704 | 19.44° C | 54% | 1005.4 hPa | - | - | - | - |
| 1778069104 | 20.56° C | 52% | 1005.2 hPa | - | - | - | - |
| 1778068503 | 20° C | 53% | 1005.2 hPa | - | - | - | - |
| 1778067903 | 20.56° C | 52% | 1005.2 hPa | - | - | - | - |
| 1778067304 | 20° C | 53% | 1005.4 hPa | - | - | - | - |
| 1778066704 | 20.56° C | 53% | 1005.4 hPa | - | - | - | - |
| 1778066103 | 19.44° C | 57% | 1005.4 hPa | - | - | - | - |
| 1778065504 | 19.44° C | 56% | 1005.3 hPa | - | - | - | - |
| 1778064903 | 19.44° C | 57% | 1005.2 hPa | - | - | - | - |
| 1778064303 | 19.44° C | 56% | 1005.1 hPa | - | - | - | - |
| 1778063703 | 18.89° C | 55% | 1005 hPa | - | - | - | - |
| 1778061304 | 18.89° C | 57% | 1004.8 hPa | - | - | - | - |
| 1778060103 | 18.89° C | 54% | 1004.7 hPa | - | - | - | - |
| 1778058303 | 18.33° C | 58% | 1004.6 hPa | - | - | - | - |
| 1778057105 | 16.11° C | 65% | 1004.8 hPa | - | - | - | - |
| 1778056503 | 16.11° C | 63% | 1004.4 hPa | - | - | - | - |
| 1778055903 | 16.67° C | 62% | 1004.2 hPa | - | - | - | - |
| 1778055303 | 16.67° C | 62% | 1004.6 hPa | - | - | - | - |
| 1778054703 | 16.67° C | 63% | 1004.7 hPa | - | - | - | - |
| 1778054103 | 16.11° C | 63% | 1004.7 hPa | - | - | - | - |
* Rain since midnight (hover to see other rain measurements)
** Current wind speed in m/s (hover to see current wind gust speed)